createdAt,value
2023-09-27T00:01:01.389Z,20.24
2023-09-27T00:03:27.929Z,20.25
2023-09-27T00:05:54.599Z,20.25
2023-09-27T00:08:21.193Z,20.26
2023-09-27T00:10:47.705Z,20.25
2023-09-27T00:13:14.210Z,20.22
2023-09-27T00:15:41.277Z,20.21
2023-09-27T00:18:07.985Z,20.19
2023-09-27T00:20:34.490Z,20.20
2023-09-27T00:23:01.623Z,20.18
2023-09-27T00:25:28.077Z,20.18
2023-09-27T00:27:54.515Z,20.17
2023-09-27T00:30:21.003Z,20.08
2023-09-27T00:32:47.531Z,20.08
2023-09-27T00:35:20.786Z,20.08
2023-09-27T00:37:48.251Z,20.04
2023-09-27T00:40:16.197Z,20.05
2023-09-27T00:42:42.804Z,20.04
2023-09-27T00:45:09.549Z,20.04
2023-09-27T00:47:36.723Z,20.03
2023-09-27T00:50:03.635Z,20.04
2023-09-27T00:52:30.593Z,20.01
2023-09-27T00:54:58.154Z,20.02
2023-09-27T00:57:24.799Z,20.04
2023-09-27T00:59:51.452Z,20.07
2023-09-27T01:02:18.049Z,20.08
2023-09-27T01:04:44.907Z,20.06
2023-09-27T01:07:11.429Z,20.04
2023-09-27T01:09:38.811Z,20.02
2023-09-27T01:12:05.775Z,19.99
2023-09-27T01:14:32.346Z,19.96
2023-09-27T01:17:08.634Z,19.92
2023-09-27T01:19:35.688Z,19.87
2023-09-27T01:22:02.243Z,19.87
2023-09-27T01:24:31.266Z,19.82
2023-09-27T01:26:58.720Z,19.78
2023-09-27T01:29:25.201Z,19.77
2023-09-27T01:31:51.759Z,19.74
2023-09-27T01:34:18.307Z,19.79
2023-09-27T01:36:44.740Z,19.82
2023-09-27T01:39:11.223Z,19.80
2023-09-27T01:41:37.667Z,19.80
2023-09-27T01:44:04.164Z,19.71
2023-09-27T01:46:30.711Z,19.75
2023-09-27T01:48:57.209Z,19.79
2023-09-27T01:51:23.663Z,19.82
2023-09-27T01:53:50.125Z,19.83
2023-09-27T01:56:16.675Z,19.81
2023-09-27T01:58:43.213Z,19.79
2023-09-27T02:01:09.742Z,19.71
2023-09-27T02:03:36.358Z,19.74
2023-09-27T02:06:02.916Z,19.76
2023-09-27T02:08:29.486Z,19.77
2023-09-27T02:10:56.003Z,19.78
2023-09-27T02:13:22.463Z,19.77
2023-09-27T02:15:48.993Z,19.79
2023-09-27T02:18:15.467Z,19.79
2023-09-27T02:20:42.527Z,19.81
2023-09-27T02:23:09.026Z,19.82
2023-09-27T02:25:35.565Z,19.81
2023-09-27T02:28:02.131Z,19.78
2023-09-27T02:30:28.590Z,19.77
2023-09-27T02:32:55.126Z,19.79
2023-09-27T02:35:22.306Z,19.78
2023-09-27T02:37:48.932Z,19.78
2023-09-27T02:40:15.717Z,19.79
2023-09-27T02:42:42.755Z,19.75
2023-09-27T02:45:13.012Z,19.77
2023-09-27T02:47:40.627Z,19.80
2023-09-27T02:50:11.176Z,19.79
2023-09-27T02:52:39.582Z,19.81
2023-09-27T02:55:09.936Z,19.82
2023-09-27T02:57:37.198Z,19.83
2023-09-27T03:00:04.637Z,19.81
2023-09-27T03:02:32.688Z,19.82
2023-09-27T03:04:59.345Z,19.81
2023-09-27T03:07:25.831Z,19.80
2023-09-27T03:09:52.276Z,19.81
2023-09-27T03:12:18.723Z,19.80
2023-09-27T03:14:45.188Z,19.82
2023-09-27T03:17:11.687Z,19.84
2023-09-27T03:19:38.246Z,19.86
2023-09-27T03:22:04.716Z,19.87
2023-09-27T03:24:31.430Z,19.79
2023-09-27T03:26:58.736Z,19.79
2023-09-27T03:29:25.214Z,19.75
2023-09-27T03:31:51.676Z,19.76
2023-09-27T03:34:18.251Z,19.74
2023-09-27T03:36:45.487Z,19.76
2023-09-27T03:39:12.427Z,19.77
2023-09-27T03:41:40.271Z,19.76
2023-09-27T03:44:06.856Z,19.75
2023-09-27T03:46:33.321Z,19.75
2023-09-27T03:48:59.764Z,19.76
2023-09-27T03:51:26.465Z,19.74
2023-09-27T03:53:52.984Z,19.69
2023-09-27T03:56:19.548Z,19.66
2023-09-27T03:58:46.105Z,19.69
2023-09-27T04:01:13.417Z,19.69
2023-09-27T04:03:40.073Z,19.70
2023-09-27T04:06:06.586Z,19.72
2023-09-27T04:08:33.434Z,19.72
2023-09-27T04:11:02.919Z,19.73
2023-09-27T04:13:29.463Z,19.68
2023-09-27T04:15:55.968Z,19.65
2023-09-27T04:18:22.501Z,19.65
2023-09-27T04:20:49.019Z,19.63
2023-09-27T04:23:15.625Z,19.55
2023-09-27T04:25:42.812Z,19.53
2023-09-27T04:28:10.940Z,19.54
2023-09-27T04:30:38.303Z,19.48
2023-09-27T04:33:04.876Z,19.46
2023-09-27T04:35:31.473Z,19.40
2023-09-27T04:37:58.145Z,19.42
2023-09-27T04:40:24.679Z,19.42
2023-09-27T04:42:51.145Z,19.40
2023-09-27T04:45:17.624Z,19.32
2023-09-27T04:47:45.978Z,19.32
2023-09-27T04:50:16.746Z,19.27
2023-09-27T04:52:43.744Z,19.24
2023-09-27T04:55:10.326Z,19.18
2023-09-27T04:57:36.926Z,19.12
2023-09-27T05:00:05.204Z,19.08
2023-09-27T05:02:31.890Z,19.10
2023-09-27T05:04:58.588Z,19.12
2023-09-27T05:07:25.588Z,19.14
2023-09-27T05:09:52.134Z,19.12
2023-09-27T05:12:18.618Z,19.11
2023-09-27T05:14:45.134Z,19.04
2023-09-27T05:17:11.756Z,19.01
2023-09-27T05:19:38.278Z,19.00
2023-09-27T05:22:04.971Z,18.97
2023-09-27T05:24:34.020Z,18.95
2023-09-27T05:27:04.443Z,18.92
2023-09-27T05:29:30.973Z,18.87
2023-09-27T05:31:57.740Z,18.92
2023-09-27T05:34:24.689Z,18.90
2023-09-27T05:36:51.523Z,18.89
2023-09-27T05:39:18.139Z,18.89
2023-09-27T05:41:44.644Z,18.91
2023-09-27T05:44:11.946Z,18.90
2023-09-27T05:46:40.687Z,18.93
2023-09-27T05:49:10.450Z,18.98
2023-09-27T05:51:37.240Z,19.01
2023-09-27T05:54:03.916Z,19.02
2023-09-27T05:56:30.435Z,19.03
2023-09-27T05:59:00.503Z,19.04
2023-09-27T06:01:27.189Z,18.99
2023-09-27T06:03:53.913Z,19.01
2023-09-27T06:06:20.454Z,19.01
2023-09-27T06:08:46.919Z,18.99
2023-09-27T06:11:13.465Z,18.95
2023-09-27T06:13:40.079Z,18.91
2023-09-27T06:16:13.239Z,18.91
2023-09-27T06:18:39.774Z,18.90
2023-09-27T06:21:06.268Z,18.88
2023-09-27T06:23:32.753Z,18.92
2023-09-27T06:25:59.313Z,18.94
2023-09-27T06:28:25.869Z,18.98
2023-09-27T06:30:52.285Z,19.02
2023-09-27T06:33:18.816Z,19.07
2023-09-27T06:35:45.326Z,19.10
2023-09-27T06:38:11.870Z,19.08
2023-09-27T06:40:38.355Z,19.07
2023-09-27T06:43:06.245Z,19.08
2023-09-27T06:45:33.554Z,19.09
2023-09-27T06:48:00.112Z,19.07
2023-09-27T06:50:26.962Z,19.05
2023-09-27T06:52:59.915Z,19.06
2023-09-27T06:55:33.744Z,19.05
2023-09-27T06:58:00.218Z,19.09
2023-09-27T07:00:26.690Z,19.12
2023-09-27T07:02:53.632Z,19.17
2023-09-27T07:05:22.797Z,19.19
2023-09-27T07:07:52.259Z,19.22
2023-09-27T07:10:18.835Z,19.17
2023-09-27T07:12:45.368Z,19.27
2023-09-27T07:15:14.905Z,19.29
2023-09-27T07:17:42.184Z,19.30
2023-09-27T07:20:30.363Z,19.27
2023-09-27T07:22:57.587Z,19.39
2023-09-27T07:25:29.707Z,19.49
2023-09-27T07:27:57.156Z,19.53
2023-09-27T07:30:26.991Z,19.64
2023-09-27T07:32:57.895Z,19.73
2023-09-27T07:35:25.956Z,19.81
2023-09-27T07:37:52.439Z,19.88
2023-09-27T07:40:18.899Z,19.93
2023-09-27T07:42:46.106Z,19.98
2023-09-27T07:45:22.752Z,20.02
2023-09-27T07:47:50.420Z,20.09
2023-09-27T07:50:17.174Z,20.18
2023-09-27T07:52:43.774Z,20.23
2023-09-27T07:55:11.922Z,20.28
2023-09-27T07:57:39.009Z,20.36
2023-09-27T08:00:11.533Z,20.43
2023-09-27T08:02:39.433Z,20.53
2023-09-27T08:05:10.848Z,20.65
2023-09-27T08:07:40.578Z,20.81
2023-09-27T08:10:21.245Z,20.95
2023-09-27T08:12:48.904Z,21.09
2023-09-27T08:15:15.869Z,21.17
2023-09-27T08:17:43.372Z,21.22
2023-09-27T08:20:13.350Z,21.38
2023-09-27T08:22:40.919Z,21.47
2023-09-27T08:25:20.245Z,21.51
2023-09-27T08:27:51.534Z,21.64
2023-09-27T08:30:18.346Z,21.76
2023-09-27T08:32:45.175Z,21.83
2023-09-27T08:35:12.178Z,21.86
2023-09-27T08:37:38.822Z,21.85
2023-09-27T08:40:14.912Z,21.91
2023-09-27T08:42:42.327Z,21.84
2023-09-27T08:45:12.204Z,21.78
2023-09-27T08:47:40.947Z,21.72
2023-09-27T08:50:07.635Z,21.67
2023-09-27T08:52:34.736Z,21.62
2023-09-27T08:55:01.209Z,21.59
2023-09-27T08:57:29.115Z,21.55
2023-09-27T08:59:56.526Z,21.52
2023-09-27T09:02:25.345Z,21.48
2023-09-27T09:04:52.226Z,21.46
2023-09-27T09:07:19.542Z,21.43
2023-09-27T09:09:47.343Z,21.42
2023-09-27T09:12:13.943Z,21.40
2023-09-27T09:14:50.917Z,21.41
2023-09-27T09:17:21.133Z,21.36
2023-09-27T09:20:16.189Z,21.31
2023-09-27T09:22:43.994Z,21.30
2023-09-27T09:25:10.492Z,21.27
2023-09-27T09:27:37.073Z,21.26
2023-09-27T09:30:07.734Z,21.25
2023-09-27T09:32:34.674Z,21.24
2023-09-27T09:35:01.529Z,21.23
2023-09-27T09:37:29.696Z,21.21
2023-09-27T09:40:14.372Z,21.20
2023-09-27T09:42:40.890Z,21.20
2023-09-27T09:45:08.139Z,21.21
2023-09-27T09:47:38.168Z,21.19
2023-09-27T09:50:09.945Z,21.19
2023-09-27T09:52:39.462Z,21.18
2023-09-27T09:55:21.289Z,21.19
2023-09-27T09:58:03.601Z,21.20
2023-09-27T10:00:31.354Z,21.20
2023-09-27T10:03:05.128Z,21.21
2023-09-27T10:05:37.634Z,21.22
2023-09-27T10:08:05.878Z,21.23
2023-09-27T10:10:32.638Z,21.23
2023-09-27T10:12:59.530Z,21.23
2023-09-27T10:15:27.013Z,21.23
2023-09-27T10:17:53.671Z,21.22
2023-09-27T10:20:23.641Z,21.24
2023-09-27T10:22:50.986Z,21.23
2023-09-27T10:25:35.764Z,21.23
2023-09-27T10:28:16.465Z,21.22
2023-09-27T10:30:42.969Z,21.23
2023-09-27T10:33:19.654Z,21.24
2023-09-27T10:36:01.988Z,21.23
2023-09-27T10:38:43.537Z,21.23
2023-09-27T10:41:10.654Z,21.22
2023-09-27T10:43:37.485Z,21.23
2023-09-27T10:46:05.631Z,21.22
2023-09-27T10:48:32.672Z,21.20
2023-09-27T10:50:59.728Z,21.20
2023-09-27T10:53:26.608Z,21.20
2023-09-27T10:55:53.390Z,21.19
2023-09-27T10:58:20.264Z,21.18
2023-09-27T11:00:54.572Z,21.16
2023-09-27T11:03:21.475Z,21.17
2023-09-27T11:05:48.898Z,21.18
2023-09-27T11:08:23.113Z,21.19
2023-09-27T11:10:50.303Z,21.20
2023-09-27T11:13:18.843Z,21.21
2023-09-27T11:15:45.718Z,21.23
2023-09-27T11:18:12.461Z,21.30
2023-09-27T11:20:42.235Z,21.33
2023-09-27T11:23:08.861Z,21.36
2023-09-27T11:25:36.425Z,21.40
2023-09-27T11:28:03.498Z,21.43
2023-09-27T11:30:34.455Z,21.46
2023-09-27T11:33:02.822Z,21.49
2023-09-27T11:35:29.497Z,21.54
2023-09-27T11:38:06.102Z,21.56
2023-09-27T11:40:36.323Z,21.60
2023-09-27T11:43:03.119Z,21.64
2023-09-27T11:45:31.185Z,21.67
2023-09-27T11:47:57.818Z,21.71
2023-09-27T11:50:24.365Z,21.74
2023-09-27T11:52:50.889Z,21.76
2023-09-27T11:55:18.159Z,21.76
2023-09-27T11:57:44.619Z,21.83
2023-09-27T12:00:16.612Z,21.87
2023-09-27T12:02:55.839Z,21.89
2023-09-27T12:05:24.181Z,21.91
2023-09-27T12:07:51.155Z,21.93
2023-09-27T12:10:17.733Z,21.95
2023-09-27T12:12:44.327Z,21.99
2023-09-27T12:15:11.541Z,22.01
2023-09-27T12:17:39.115Z,22.03
2023-09-27T12:20:07.676Z,22.05
2023-09-27T12:22:35.885Z,22.07
2023-09-27T12:25:02.354Z,22.09
2023-09-27T12:27:29.024Z,22.12
2023-09-27T12:29:55.629Z,22.14
2023-09-27T12:32:22.143Z,22.17
2023-09-27T12:34:49.392Z,22.19
2023-09-27T12:37:15.855Z,22.20
2023-09-27T12:39:42.281Z,22.24
2023-09-27T12:42:08.733Z,22.26
2023-09-27T12:44:35.351Z,22.27
2023-09-27T12:47:02.755Z,22.29
2023-09-27T12:49:29.310Z,22.31
2023-09-27T12:51:55.814Z,22.34
2023-09-27T12:54:23.905Z,22.37
2023-09-27T12:56:50.592Z,22.39
2023-09-27T12:59:17.134Z,22.40
2023-09-27T13:01:43.730Z,22.44
2023-09-27T13:04:10.762Z,22.46
2023-09-27T13:06:37.603Z,22.48
2023-09-27T13:09:04.322Z,22.50
2023-09-27T13:11:30.898Z,22.54
2023-09-27T13:13:57.419Z,22.54
2023-09-27T13:16:24.960Z,22.55
2023-09-27T13:18:54.214Z,22.57
2023-09-27T13:21:21.531Z,22.58
2023-09-27T13:23:48.048Z,22.60
2023-09-27T13:26:14.725Z,22.64
2023-09-27T13:28:41.176Z,22.67
2023-09-27T13:31:08.368Z,22.69
2023-09-27T13:33:35.725Z,22.69
2023-09-27T13:36:02.416Z,22.71
2023-09-27T13:38:29.182Z,22.72
2023-09-27T13:40:55.927Z,22.75
2023-09-27T13:43:22.415Z,22.79
2023-09-27T13:45:48.926Z,22.81
2023-09-27T13:48:15.646Z,22.84
2023-09-27T13:50:42.233Z,22.86
2023-09-27T13:53:08.798Z,22.88
2023-09-27T13:55:35.318Z,22.90
2023-09-27T13:58:01.757Z,22.92
2023-09-27T14:00:29.032Z,22.96
2023-09-27T14:02:56.124Z,22.97
2023-09-27T14:05:22.777Z,22.98
2023-09-27T14:07:51.144Z,23.01
2023-09-27T14:10:18.302Z,23.03
2023-09-27T14:12:44.744Z,23.03
2023-09-27T14:15:13.032Z,23.03
2023-09-27T14:17:41.232Z,23.04
2023-09-27T14:20:08.357Z,23.04
2023-09-27T14:22:35.560Z,23.06
2023-09-27T14:25:02.223Z,23.06
2023-09-27T14:27:29.489Z,23.07
2023-09-27T14:29:55.989Z,23.08
2023-09-27T14:32:23.616Z,23.08
2023-09-27T14:37:20.316Z,23.10
2023-09-27T14:39:46.777Z,23.11
2023-09-27T14:42:13.681Z,23.06
2023-09-27T14:44:40.308Z,23.12
2023-09-27T14:47:06.822Z,23.12
2023-09-27T14:49:33.317Z,23.13
2023-09-27T14:51:59.910Z,23.14
2023-09-27T14:54:26.402Z,23.15
2023-09-27T14:56:52.995Z,23.16
2023-09-27T14:59:19.550Z,23.16
2023-09-27T15:01:46.093Z,23.17
2023-09-27T15:04:14.222Z,23.16
2023-09-27T15:06:41.095Z,23.16
2023-09-27T15:09:07.580Z,23.15
2023-09-27T15:11:34.209Z,23.15
2023-09-27T15:14:00.709Z,23.14
2023-09-27T15:16:27.186Z,23.14
2023-09-27T15:18:53.802Z,23.13
2023-09-27T15:21:20.345Z,23.12
2023-09-27T15:23:46.798Z,23.10
2023-09-27T15:26:13.420Z,23.08
2023-09-27T15:28:39.965Z,23.10
2023-09-27T15:31:08.525Z,23.08
2023-09-27T15:33:34.964Z,23.07
2023-09-27T15:36:01.404Z,23.07
2023-09-27T15:38:28.128Z,23.06
2023-09-27T15:40:54.946Z,23.05
2023-09-27T15:43:22.055Z,23.02
2023-09-27T15:46:06.840Z,23.01
2023-09-27T15:48:36.925Z,23.00
2023-09-27T15:51:07.598Z,22.98
2023-09-27T15:53:34.816Z,22.99
2023-09-27T15:56:02.694Z,22.97
2023-09-27T15:58:29.444Z,22.99
2023-09-27T16:00:56.008Z,22.96
2023-09-27T16:03:22.625Z,22.95
2023-09-27T16:05:50.088Z,22.94
2023-09-27T16:08:24.319Z,22.93
2023-09-27T16:10:55.081Z,22.92
2023-09-27T16:13:23.388Z,22.91
2023-09-27T16:15:51.415Z,22.91
2023-09-27T16:18:19.083Z,22.89
2023-09-27T16:20:46.270Z,22.89
2023-09-27T16:23:13.541Z,22.89
2023-09-27T16:25:40.104Z,22.87
2023-09-27T16:28:07.958Z,22.87
2023-09-27T16:30:36.103Z,22.85
2023-09-27T16:33:05.656Z,22.84
2023-09-27T16:35:36.932Z,22.84
2023-09-27T16:38:03.711Z,22.83
2023-09-27T16:40:30.351Z,22.81
2023-09-27T16:42:56.859Z,22.80
2023-09-27T16:45:23.720Z,22.80
2023-09-27T16:47:50.253Z,22.79
2023-09-27T16:50:16.749Z,22.76
2023-09-27T16:52:43.285Z,22.74
2023-09-27T16:55:09.909Z,22.72
2023-09-27T16:57:37.310Z,22.70
2023-09-27T17:00:07.098Z,22.68
2023-09-27T17:02:34.038Z,22.64
2023-09-27T17:05:00.881Z,22.62
2023-09-27T17:07:33.897Z,22.61
2023-09-27T17:10:01.221Z,22.59
2023-09-27T17:12:27.829Z,22.56
2023-09-27T17:14:54.357Z,22.56
2023-09-27T17:17:20.873Z,22.54
2023-09-27T17:19:47.807Z,22.53
2023-09-27T17:22:14.288Z,22.52
2023-09-27T17:24:40.805Z,22.52
2023-09-27T17:27:07.700Z,22.49
2023-09-27T17:29:35.073Z,22.48
2023-09-27T17:32:01.663Z,22.46
2023-09-27T17:34:28.351Z,22.42
2023-09-27T17:36:54.858Z,22.39
2023-09-27T17:39:21.466Z,22.30
2023-09-27T17:41:48.033Z,22.33
2023-09-27T17:44:14.576Z,22.32
2023-09-27T17:46:41.117Z,22.28
2023-09-27T17:49:07.713Z,22.28
2023-09-27T17:51:34.287Z,22.25
2023-09-27T17:54:00.763Z,22.24
2023-09-27T17:56:30.456Z,22.22
2023-09-27T17:58:57.168Z,22.20
2023-09-27T18:01:26.962Z,22.18
2023-09-27T18:03:53.892Z,22.17
2023-09-27T18:06:20.705Z,22.16
2023-09-27T18:08:47.175Z,22.17
2023-09-27T18:11:15.055Z,22.16
2023-09-27T18:13:42.253Z,22.14
2023-09-27T18:16:16.232Z,22.14
2023-09-27T18:18:44.093Z,22.13
2023-09-27T18:21:14.338Z,22.11
2023-09-27T18:23:41.460Z,22.11
2023-09-27T18:26:08.270Z,22.10
2023-09-27T18:28:35.474Z,22.08
2023-09-27T18:31:02.031Z,22.07
2023-09-27T18:33:28.750Z,22.07
2023-09-27T18:35:55.204Z,22.07
2023-09-27T18:38:21.749Z,22.01
2023-09-27T18:40:48.375Z,22.04
2023-09-27T18:43:19.388Z,22.03
2023-09-27T18:45:46.825Z,22.02
2023-09-27T18:48:19.317Z,21.99
2023-09-27T18:50:47.015Z,21.96
2023-09-27T18:53:13.615Z,21.93
2023-09-27T18:55:40.125Z,21.91
2023-09-27T18:58:07.284Z,21.90
2023-09-27T19:00:33.768Z,21.87
2023-09-27T19:03:02.671Z,21.84
2023-09-27T19:05:29.379Z,21.84
2023-09-27T19:07:55.917Z,21.82
2023-09-27T19:10:22.526Z,21.82
2023-09-27T19:12:49.009Z,21.78
2023-09-27T19:15:15.438Z,21.78
2023-09-27T19:17:42.559Z,21.78
2023-09-27T19:20:10.041Z,21.77
2023-09-27T19:22:36.837Z,21.76
2023-09-27T19:25:04.339Z,21.74
2023-09-27T19:27:31.176Z,21.70
2023-09-27T19:29:57.650Z,21.69
2023-09-27T19:32:24.305Z,21.67
2023-09-27T19:34:51.021Z,21.66
2023-09-27T19:37:20.508Z,21.66
2023-09-27T19:39:48.399Z,21.63
2023-09-27T19:42:15.234Z,21.61
2023-09-27T19:44:42.328Z,21.60
2023-09-27T19:47:09.238Z,21.56
2023-09-27T19:49:36.006Z,21.55
2023-09-27T19:52:03.382Z,21.53
2023-09-27T19:54:29.899Z,21.53
2023-09-27T19:56:56.414Z,21.52
2023-09-27T19:59:23.172Z,21.51
2023-09-27T20:01:49.806Z,21.49
2023-09-27T20:04:16.384Z,21.46
2023-09-27T20:06:43.181Z,21.44
2023-09-27T20:09:09.852Z,21.42
2023-09-27T20:11:38.713Z,21.40
2023-09-27T20:14:05.631Z,21.43
2023-09-27T20:16:33.788Z,21.41
2023-09-27T20:19:01.135Z,21.40
2023-09-27T20:21:27.774Z,21.41
2023-09-27T20:23:54.469Z,21.41
2023-09-27T20:26:21.111Z,21.39
2023-09-27T20:28:48.244Z,21.38
2023-09-27T20:31:15.900Z,21.32
2023-09-27T20:33:42.548Z,21.38
2023-09-27T20:36:12.855Z,21.38
2023-09-27T20:38:39.931Z,21.37
2023-09-27T20:41:06.645Z,21.38
2023-09-27T20:43:33.127Z,21.37
2023-09-27T20:45:59.637Z,21.37
2023-09-27T20:48:26.663Z,21.39
2023-09-27T20:50:58.084Z,21.39
2023-09-27T20:53:25.473Z,21.41
2023-09-27T20:55:54.099Z,21.41
2023-09-27T20:58:20.844Z,21.39
2023-09-27T21:00:47.524Z,21.42
2023-09-27T21:03:14.112Z,21.42
2023-09-27T21:05:41.063Z,21.43
2023-09-27T21:08:07.738Z,21.44
2023-09-27T21:10:34.324Z,21.45
2023-09-27T21:13:00.824Z,21.46
2023-09-27T21:15:27.415Z,21.49
2023-09-27T21:17:54.077Z,21.49
2023-09-27T21:20:20.847Z,21.50
2023-09-27T21:22:48.236Z,21.52
2023-09-27T21:25:15.903Z,21.51
2023-09-27T21:27:42.814Z,21.53
2023-09-27T21:30:09.575Z,21.52
2023-09-27T21:32:36.464Z,21.52
2023-09-27T21:35:04.471Z,21.52
2023-09-27T21:37:31.061Z,21.51
2023-09-27T21:39:57.560Z,21.52
2023-09-27T21:42:24.157Z,21.51
2023-09-27T21:44:50.643Z,21.51
2023-09-27T21:47:17.135Z,21.50
2023-09-27T21:49:43.629Z,21.51
2023-09-27T21:52:11.188Z,21.50
2023-09-27T21:54:37.670Z,21.50
2023-09-27T21:57:04.155Z,21.48
2023-09-27T21:59:30.632Z,21.49
2023-09-27T22:01:57.131Z,21.48
2023-09-27T22:04:23.818Z,21.48
2023-09-27T22:06:50.307Z,21.50
2023-09-27T22:09:16.860Z,21.53
2023-09-27T22:11:45.324Z,21.56
2023-09-27T22:14:11.872Z,21.56
2023-09-27T22:16:38.497Z,21.58
2023-09-27T22:19:12.236Z,21.59
2023-09-27T22:21:42.805Z,21.59
2023-09-27T22:24:13.143Z,21.58
2023-09-27T22:26:47.087Z,21.59
2023-09-27T22:29:15.400Z,21.60
2023-09-27T22:31:43.721Z,21.62
2023-09-27T22:34:24.159Z,21.62
2023-09-27T22:36:54.607Z,21.60
2023-09-27T22:39:23.392Z,21.62
2023-09-27T22:41:53.123Z,21.62
2023-09-27T22:44:20.729Z,21.63
2023-09-27T22:46:51.565Z,21.63
2023-09-27T22:49:24.534Z,21.64
2023-09-27T22:51:51.301Z,21.66
2023-09-27T22:54:18.921Z,21.65
2023-09-27T22:56:46.085Z,21.65
2023-09-27T22:59:13.319Z,21.65
2023-09-27T23:01:40.926Z,21.65
2023-09-27T23:04:11.569Z,21.66
2023-09-27T23:06:46.068Z,21.66
2023-09-27T23:09:21.225Z,21.66
2023-09-27T23:11:49.870Z,21.66
2023-09-27T23:14:22.782Z,21.67
2023-09-27T23:16:50.648Z,21.67
2023-09-27T23:19:18.811Z,21.68
2023-09-27T23:21:46.723Z,21.68
2023-09-27T23:24:22.083Z,21.70
2023-09-27T23:27:00.538Z,21.70
2023-09-27T23:29:30.315Z,21.71
2023-09-27T23:32:15.230Z,21.71
2023-09-27T23:34:42.183Z,21.72
2023-09-27T23:37:16.582Z,21.73
2023-09-27T23:39:44.040Z,21.74
2023-09-27T23:42:22.999Z,21.73
2023-09-27T23:44:54.667Z,21.72
2023-09-27T23:47:23.607Z,21.72
2023-09-27T23:50:01.898Z,21.69
2023-09-27T23:52:29.630Z,21.69
2023-09-27T23:54:57.668Z,21.70
2023-09-27T23:57:28.910Z,21.68
